Oklahoma City, OK (73189)

9:02 PM CDT on July 28, 2016 (GMT -0500)
LakeRidge Run | | Change Station

Elev 1253 ft 35.36 °N, 97.56 °W | Updated 1 second ago

Mostly Cloudy
Mostly Cloudy
83.8 °F
Feels Like 90 °F
N
0.0
Wind Variable Wind from East
Gusts 0.0 mph

Today
High -- | Low -- °F
--% Chance of Precip.
Yesterday
High -- | Low -- °F
Precip. -- in
Pressure 29.86 in
Visibility 10.0 miles
Clouds Few 5000 ft
Few 13000 ft
Mostly Cloudy 18000 ft
Mostly Cloudy 25000 ft
Heat Index 90 °F
Dew Point 73 °F
Humidity 70%
Rainfall in
Snow Depth Not available.
6:36 AM 8:36 PM
Waning Crescent, 26% visible
METAR KOKC 290152Z 13003KT 10SM FEW050 FEW130 BKN180 BKN250 27/22 A2991 RMK AO2 SLP112 T02720222
Pressure 29.86 in
Visibility 10.0 miles
Clouds Few 5000 ft
Few 13000 ft
Mostly Cloudy 18000 ft
Mostly Cloudy 25000 ft
Heat Index 90 °F
Dew Point 73 °F
Humidity 70%
Rainfall in
Snow Depth Not available.
6:36 AM 8:36 PM
Waning Crescent, 26% visible
METAR KOKC 290152Z 13003KT 10SM FEW050 FEW130 BKN180 BKN250 27/22 A2991 RMK AO2 SLP112 T02720222

10-Day Weather Forecast

Almanac

Astronomy

Jul. 28, 2016 Rise Set
Actual Time
Civil Twilight
Nautical Twilight
Astronomical Twilight
Moon
Length of Visible Light
Length of Day
Tomorrow will be .
, % of the Moon is Illuminated

Today's Extremes

State Highs State Lows

Community

WunderPhotos

Upload Photos

1,928,265 photos uploaded!

WunderBlog® & News

Nearby

Air Quality

  Air Quality AQ Index Pollutant
Not available.

Snow Depth

Station Depth Elevation

Earthquake Activity

City Distance Mag. Time & Date
Minimum magnitude displayed is 2.5.

Coastal Water Temperatures

Place Temperature

Stations

Nearby Weather Stations

Station Location Temp. Windchill Dew Point Humidity Wind Precip. Elev Updated Type
                   

Watches & Warnings

There are currently no watches in effect.